sensor_id;sensor_type;location;lat;lon;timestamp;pressure;altitude;pressure_sealevel;temperature
70533;BMP180;58088;51.186;17.130;2022-10-28T00:01:10;101237.00;;;12.60
70533;BMP180;58088;51.186;17.130;2022-10-28T00:03:41;101228.40;;;12.60
70533;BMP180;58088;51.186;17.130;2022-10-28T00:06:15;101230.80;;;12.60
70533;BMP180;58088;51.186;17.130;2022-10-28T00:08:42;101229.40;;;12.50
70533;BMP180;58088;51.186;17.130;2022-10-28T00:11:16;101231.80;;;12.50
70533;BMP180;58088;51.186;17.130;2022-10-28T00:13:44;101224.80;;;12.50
70533;BMP180;58088;51.186;17.130;2022-10-28T00:16:19;101224.40;;;12.40
70533;BMP180;58088;51.186;17.130;2022-10-28T00:18:47;101222.60;;;12.40
70533;BMP180;58088;51.186;17.130;2022-10-28T00:21:20;101221.60;;;12.40
70533;BMP180;58088;51.186;17.130;2022-10-28T00:23:46;101226.80;;;12.40
70533;BMP180;58088;51.186;17.130;2022-10-28T00:26:18;101224.80;;;12.30
70533;BMP180;58088;51.186;17.130;2022-10-28T00:28:48;101226.00;;;12.30
70533;BMP180;58088;51.186;17.130;2022-10-28T00:31:18;101211.80;;;12.30
70533;BMP180;58088;51.186;17.130;2022-10-28T00:33:45;101212.80;;;12.20
70533;BMP180;58088;51.186;17.130;2022-10-28T00:36:20;101213.80;;;12.10
70533;BMP180;58088;51.186;17.130;2022-10-28T00:38:50;101209.60;;;12.10
70533;BMP180;58088;51.186;17.130;2022-10-28T00:41:36;101203.80;;;12.00
70533;BMP180;58088;51.186;17.130;2022-10-28T00:48:04;101189.00;;;11.94
70533;BMP180;58088;51.186;17.130;2022-10-28T00:50:47;101191.60;;;11.90
70533;BMP180;58088;51.186;17.130;2022-10-28T00:53:25;101189.00;;;11.80
70533;BMP180;58088;51.186;17.130;2022-10-28T00:55:52;101192.20;;;11.80
70533;BMP180;58088;51.186;17.130;2022-10-28T00:58:23;101185.00;;;11.70
70533;BMP180;58088;51.186;17.130;2022-10-28T01:00:50;101186.20;;;11.70
70533;BMP180;58088;51.186;17.130;2022-10-28T01:03:17;101182.60;;;11.60
70533;BMP180;58088;51.186;17.130;2022-10-28T01:05:46;101179.60;;;11.60
70533;BMP180;58088;51.186;17.130;2022-10-28T01:08:15;101178.60;;;11.60
70533;BMP180;58088;51.186;17.130;2022-10-28T01:11:09;101178.40;;;11.60
70533;BMP180;58088;51.186;17.130;2022-10-28T01:17:57;101170.20;;;11.58
70533;BMP180;58088;51.186;17.130;2022-10-28T01:24:11;101164.00;;;11.60
70533;BMP180;58088;51.186;17.130;2022-10-28T01:29:44;101162.40;;;11.50
70533;BMP180;58088;51.186;17.130;2022-10-28T01:35:19;101160.00;;;11.40
70533;BMP180;58088;51.186;17.130;2022-10-28T01:38:21;101159.40;;;11.40
70533;BMP180;58088;51.186;17.130;2022-10-28T01:41:17;101162.20;;;11.32
70533;BMP180;58088;51.186;17.130;2022-10-28T01:47:19;101156.80;;;11.20
70533;BMP180;58088;51.186;17.130;2022-10-28T01:50:04;101149.00;;;11.20
70533;BMP180;58088;51.186;17.130;2022-10-28T01:52:33;101147.40;;;11.10
70533;BMP180;58088;51.186;17.130;2022-10-28T01:55:12;101144.20;;;11.00
70533;BMP180;58088;51.186;17.130;2022-10-28T01:57:41;101136.40;;;11.00
70533;BMP180;58088;51.186;17.130;2022-10-28T02:00:09;101128.40;;;11.00
70533;BMP180;58088;51.186;17.130;2022-10-28T02:02:39;101131.60;;;10.90
70533;BMP180;58088;51.186;17.130;2022-10-28T02:08:24;101138.60;;;10.90
70533;BMP180;58088;51.186;17.130;2022-10-28T02:13:42;101136.20;;;10.80
70533;BMP180;58088;51.186;17.130;2022-10-28T02:16:48;101136.60;;;10.80
70533;BMP180;58088;51.186;17.130;2022-10-28T02:25:20;101126.20;;;10.70
70533;BMP180;58088;51.186;17.130;2022-10-28T02:28:05;101126.60;;;10.60
70533;BMP180;58088;51.186;17.130;2022-10-28T02:30:56;101134.80;;;10.60
70533;BMP180;58088;51.186;17.130;2022-10-28T02:33:36;101128.80;;;10.60
70533;BMP180;58088;51.186;17.130;2022-10-28T02:36:14;101126.20;;;10.60
70533;BMP180;58088;51.186;17.130;2022-10-28T02:38:47;101125.20;;;10.60
70533;BMP180;58088;51.186;17.130;2022-10-28T02:41:31;101129.40;;;10.60
70533;BMP180;58088;51.186;17.130;2022-10-28T02:44:07;101125.80;;;10.60
70533;BMP180;58088;51.186;17.130;2022-10-28T02:46:39;101128.80;;;10.56
70533;BMP180;58088;51.186;17.130;2022-10-28T02:49:10;101132.00;;;10.50
70533;BMP180;58088;51.186;17.130;2022-10-28T02:51:45;101132.60;;;10.40
70533;BMP180;58088;51.186;17.130;2022-10-28T02:54:18;101137.00;;;10.40
70533;BMP180;58088;51.186;17.130;2022-10-28T02:56:54;101126.40;;;10.36
70533;BMP180;58088;51.186;17.130;2022-10-28T02:59:24;101125.60;;;10.34
70533;BMP180;58088;51.186;17.130;2022-10-28T03:01:50;101128.40;;;10.26
70533;BMP180;58088;51.186;17.130;2022-10-28T03:04:17;101122.80;;;10.20
70533;BMP180;58088;51.186;17.130;2022-10-28T03:06:43;101123.60;;;10.20
70533;BMP180;58088;51.186;17.130;2022-10-28T03:09:09;101124.60;;;10.20
70533;BMP180;58088;51.186;17.130;2022-10-28T03:11:35;101125.80;;;10.10
70533;BMP180;58088;51.186;17.130;2022-10-28T03:14:02;101123.20;;;10.10
70533;BMP180;58088;51.186;17.130;2022-10-28T03:16:28;101127.80;;;10.02
70533;BMP180;58088;51.186;17.130;2022-10-28T03:18:54;101121.80;;;10.00
70533;BMP180;58088;51.186;17.130;2022-10-28T03:21:20;101120.80;;;10.00
70533;BMP180;58088;51.186;17.130;2022-10-28T03:23:47;101119.00;;;10.00
70533;BMP180;58088;51.186;17.130;2022-10-28T03:26:13;101114.00;;;10.00
70533;BMP180;58088;51.186;17.130;2022-10-28T03:28:39;101112.00;;;9.98
70533;BMP180;58088;51.186;17.130;2022-10-28T03:31:05;101113.40;;;10.00
70533;BMP180;58088;51.186;17.130;2022-10-28T03:33:32;101113.60;;;10.00
70533;BMP180;58088;51.186;17.130;2022-10-28T03:35:58;101113.20;;;10.00
70533;BMP180;58088;51.186;17.130;2022-10-28T03:38:24;101119.00;;;10.00
70533;BMP180;58088;51.186;17.130;2022-10-28T03:40:50;101101.40;;;9.98
70533;BMP180;58088;51.186;17.130;2022-10-28T03:43:17;101111.40;;;10.00
70533;BMP180;58088;51.186;17.130;2022-10-28T03:45:44;101112.20;;;10.00
70533;BMP180;58088;51.186;17.130;2022-10-28T03:48:10;101109.00;;;10.00
70533;BMP180;58088;51.186;17.130;2022-10-28T03:50:36;101103.20;;;9.90
70533;BMP180;58088;51.186;17.130;2022-10-28T03:53:03;101100.20;;;9.90
70533;BMP180;58088;51.186;17.130;2022-10-28T03:55:29;101096.80;;;9.90
70533;BMP180;58088;51.186;17.130;2022-10-28T03:57:59;101097.80;;;9.90
70533;BMP180;58088;51.186;17.130;2022-10-28T04:00:26;101097.80;;;9.90
70533;BMP180;58088;51.186;17.130;2022-10-28T04:02:52;101100.60;;;9.90
70533;BMP180;58088;51.186;17.130;2022-10-28T04:05:19;101103.00;;;9.90
70533;BMP180;58088;51.186;17.130;2022-10-28T04:07:46;101099.60;;;9.90
70533;BMP180;58088;51.186;17.130;2022-10-28T04:10:13;101090.20;;;9.90
70533;BMP180;58088;51.186;17.130;2022-10-28T04:12:39;101091.40;;;9.90
70533;BMP180;58088;51.186;17.130;2022-10-28T04:15:06;101087.80;;;9.90
70533;BMP180;58088;51.186;17.130;2022-10-28T04:17:33;101088.80;;;9.90
70533;BMP180;58088;51.186;17.130;2022-10-28T04:20:00;101095.40;;;9.80
70533;BMP180;58088;51.186;17.130;2022-10-28T04:22:26;101093.40;;;9.80
70533;BMP180;58088;51.186;17.130;2022-10-28T04:24:52;101104.60;;;9.80
70533;BMP180;58088;51.186;17.130;2022-10-28T04:27:20;101096.20;;;9.80
70533;BMP180;58088;51.186;17.130;2022-10-28T04:29:46;101099.20;;;9.80
70533;BMP180;58088;51.186;17.130;2022-10-28T04:32:12;101095.00;;;9.70
70533;BMP180;58088;51.186;17.130;2022-10-28T04:34:39;101086.40;;;9.70
70533;BMP180;58088;51.186;17.130;2022-10-28T04:37:05;101086.20;;;9.70
70533;BMP180;58088;51.186;17.130;2022-10-28T04:39:31;101077.20;;;9.70
70533;BMP180;58088;51.186;17.130;2022-10-28T04:41:57;101074.40;;;9.70
70533;BMP180;58088;51.186;17.130;2022-10-28T04:44:23;101071.00;;;9.70
70533;BMP180;58088;51.186;17.130;2022-10-28T04:46:49;101071.20;;;9.70
70533;BMP180;58088;51.186;17.130;2022-10-28T04:49:15;101062.20;;;9.70
70533;BMP180;58088;51.186;17.130;2022-10-28T04:51:41;101066.00;;;9.70
70533;BMP180;58088;51.186;17.130;2022-10-28T04:54:07;101064.40;;;9.70
70533;BMP180;58088;51.186;17.130;2022-10-28T04:56:33;101062.60;;;9.70
70533;BMP180;58088;51.186;17.130;2022-10-28T04:59:00;101065.20;;;9.72
70533;BMP180;58088;51.186;17.130;2022-10-28T05:01:26;101064.80;;;9.70
70533;BMP180;58088;51.186;17.130;2022-10-28T05:03:52;101067.80;;;9.70
70533;BMP180;58088;51.186;17.130;2022-10-28T05:06:19;101064.80;;;9.70
70533;BMP180;58088;51.186;17.130;2022-10-28T05:08:45;101066.20;;;9.70
70533;BMP180;58088;51.186;17.130;2022-10-28T05:11:11;101069.60;;;9.70
70533;BMP180;58088;51.186;17.130;2022-10-28T05:13:37;101077.20;;;9.70
70533;BMP180;58088;51.186;17.130;2022-10-28T05:16:04;101066.40;;;9.70
70533;BMP180;58088;51.186;17.130;2022-10-28T05:18:30;101071.60;;;9.70
70533;BMP180;58088;51.186;17.130;2022-10-28T05:20:56;101068.20;;;9.70
70533;BMP180;58088;51.186;17.130;2022-10-28T05:23:23;101062.80;;;9.70
70533;BMP180;58088;51.186;17.130;2022-10-28T05:25:50;101068.40;;;9.60
70533;BMP180;58088;51.186;17.130;2022-10-28T05:28:17;101062.60;;;9.60
70533;BMP180;58088;51.186;17.130;2022-10-28T05:30:44;101057.80;;;9.60
70533;BMP180;58088;51.186;17.130;2022-10-28T05:33:10;101061.00;;;9.60
70533;BMP180;58088;51.186;17.130;2022-10-28T05:35:37;101068.80;;;9.60
70533;BMP180;58088;51.186;17.130;2022-10-28T05:38:04;101059.20;;;9.60
70533;BMP180;58088;51.186;17.130;2022-10-28T05:40:31;101062.20;;;9.50
70533;BMP180;58088;51.186;17.130;2022-10-28T05:43:01;101069.80;;;9.50
70533;BMP180;58088;51.186;17.130;2022-10-28T05:45:28;101062.60;;;9.60
70533;BMP180;58088;51.186;17.130;2022-10-28T05:47:54;101065.00;;;9.60
70533;BMP180;58088;51.186;17.130;2022-10-28T05:50:21;101065.60;;;9.60
70533;BMP180;58088;51.186;17.130;2022-10-28T05:52:53;101065.20;;;9.60
70533;BMP180;58088;51.186;17.130;2022-10-28T05:55:22;101067.00;;;9.60
70533;BMP180;58088;51.186;17.130;2022-10-28T05:57:50;101061.40;;;9.62
70533;BMP180;58088;51.186;17.130;2022-10-28T06:00:20;101055.60;;;9.66
70533;BMP180;58088;51.186;17.130;2022-10-28T06:02:47;101053.80;;;9.70
70533;BMP180;58088;51.186;17.130;2022-10-28T06:05:13;101052.80;;;9.70
70533;BMP180;58088;51.186;17.130;2022-10-28T06:07:40;101057.60;;;9.80
70533;BMP180;58088;51.186;17.130;2022-10-28T06:10:09;101055.60;;;9.90
70533;BMP180;58088;51.186;17.130;2022-10-28T06:12:36;101051.40;;;10.00
70533;BMP180;58088;51.186;17.130;2022-10-28T06:15:02;101049.00;;;10.20
70533;BMP180;58088;51.186;17.130;2022-10-28T06:17:30;101055.20;;;10.40
70533;BMP180;58088;51.186;17.130;2022-10-28T06:19:56;101051.80;;;10.58
70533;BMP180;58088;51.186;17.130;2022-10-28T06:22:22;101051.60;;;10.70
70533;BMP180;58088;51.186;17.130;2022-10-28T06:24:48;101044.40;;;10.90
70533;BMP180;58088;51.186;17.130;2022-10-28T06:27:14;101043.00;;;11.08
70533;BMP180;58088;51.186;17.130;2022-10-28T06:29:40;101050.20;;;11.20
70533;BMP180;58088;51.186;17.130;2022-10-28T06:32:09;101051.80;;;11.38
70533;BMP180;58088;51.186;17.130;2022-10-28T06:34:35;101056.00;;;11.60
70533;BMP180;58088;51.186;17.130;2022-10-28T06:37:04;101056.20;;;11.80
70533;BMP180;58088;51.186;17.130;2022-10-28T06:39:32;101059.40;;;12.10
70533;BMP180;58088;51.186;17.130;2022-10-28T06:41:58;101055.40;;;12.38
70533;BMP180;58088;51.186;17.130;2022-10-28T06:44:24;101062.00;;;12.68
70533;BMP180;58088;51.186;17.130;2022-10-28T06:46:50;101062.20;;;12.90
70533;BMP180;58088;51.186;17.130;2022-10-28T06:49:16;101065.80;;;13.18
70533;BMP180;58088;51.186;17.130;2022-10-28T06:51:42;101074.60;;;13.40
70533;BMP180;58088;51.186;17.130;2022-10-28T06:54:08;101074.60;;;13.70
70533;BMP180;58088;51.186;17.130;2022-10-28T06:56:35;101080.80;;;13.90
70533;BMP180;58088;51.186;17.130;2022-10-28T06:59:01;101080.80;;;14.08
70533;BMP180;58088;51.186;17.130;2022-10-28T07:01:27;101082.40;;;14.20
70533;BMP180;58088;51.186;17.130;2022-10-28T07:03:53;101080.20;;;14.30
70533;BMP180;58088;51.186;17.130;2022-10-28T07:06:19;101079.40;;;14.50
70533;BMP180;58088;51.186;17.130;2022-10-28T07:08:45;101080.60;;;14.68
70533;BMP180;58088;51.186;17.130;2022-10-28T07:11:12;101084.00;;;14.80
70533;BMP180;58088;51.186;17.130;2022-10-28T07:13:38;101085.40;;;14.90
70533;BMP180;58088;51.186;17.130;2022-10-28T07:16:05;101083.40;;;14.90
70533;BMP180;58088;51.186;17.130;2022-10-28T07:18:31;101086.80;;;14.80
70533;BMP180;58088;51.186;17.130;2022-10-28T07:20:59;101082.20;;;14.80
70533;BMP180;58088;51.186;17.130;2022-10-28T07:23:27;101084.00;;;14.80
70533;BMP180;58088;51.186;17.130;2022-10-28T07:25:56;101077.00;;;14.88
70533;BMP180;58088;51.186;17.130;2022-10-28T07:28:24;101086.80;;;14.90
70533;BMP180;58088;51.186;17.130;2022-10-28T07:30:51;101084.20;;;14.90
70533;BMP180;58088;51.186;17.130;2022-10-28T07:33:17;101075.20;;;14.94
70533;BMP180;58088;51.186;17.130;2022-10-28T07:35:43;101078.60;;;15.00
70533;BMP180;58088;51.186;17.130;2022-10-28T07:38:10;101070.80;;;15.00
70533;BMP180;58088;51.186;17.130;2022-10-28T07:40:37;101074.40;;;14.92
70533;BMP180;58088;51.186;17.130;2022-10-28T07:43:03;101081.60;;;14.90
70533;BMP180;58088;51.186;17.130;2022-10-28T07:45:29;101086.60;;;14.90
70533;BMP180;58088;51.186;17.130;2022-10-28T07:47:55;101093.20;;;15.00
70533;BMP180;58088;51.186;17.130;2022-10-28T07:50:21;101086.20;;;15.10
70533;BMP180;58088;51.186;17.130;2022-10-28T07:52:47;101084.40;;;15.10
70533;BMP180;58088;51.186;17.130;2022-10-28T07:55:13;101083.80;;;15.20
70533;BMP180;58088;51.186;17.130;2022-10-28T07:57:39;101083.20;;;15.40
70533;BMP180;58088;51.186;17.130;2022-10-28T08:00:06;101086.20;;;15.50
70533;BMP180;58088;51.186;17.130;2022-10-28T08:02:39;101085.20;;;15.60
70533;BMP180;58088;51.186;17.130;2022-10-28T08:05:05;101082.80;;;15.68
70533;BMP180;58088;51.186;17.130;2022-10-28T08:07:32;101086.40;;;15.70
70533;BMP180;58088;51.186;17.130;2022-10-28T08:09:58;101079.80;;;15.80
70533;BMP180;58088;51.186;17.130;2022-10-28T08:12:25;101085.20;;;16.00
70533;BMP180;58088;51.186;17.130;2022-10-28T08:14:53;101071.60;;;16.10
70533;BMP180;58088;51.186;17.130;2022-10-28T08:17:21;101065.00;;;16.30
70533;BMP180;58088;51.186;17.130;2022-10-28T08:19:47;101066.60;;;16.32
70533;BMP180;58088;51.186;17.130;2022-10-28T08:22:13;101063.60;;;16.40
70533;BMP180;58088;51.186;17.130;2022-10-28T08:24:39;101065.80;;;16.54
70533;BMP180;58088;51.186;17.130;2022-10-28T08:27:05;101068.80;;;16.70
70533;BMP180;58088;51.186;17.130;2022-10-28T08:29:32;101073.20;;;16.80
70533;BMP180;58088;51.186;17.130;2022-10-28T08:31:58;101068.40;;;16.90
70533;BMP180;58088;51.186;17.130;2022-10-28T08:34:25;101064.80;;;17.04
70533;BMP180;58088;51.186;17.130;2022-10-28T08:36:54;101063.00;;;17.20
70533;BMP180;58088;51.186;17.130;2022-10-28T08:39:21;101067.20;;;17.30
70533;BMP180;58088;51.186;17.130;2022-10-28T08:42:03;101069.00;;;17.50
70533;BMP180;58088;51.186;17.130;2022-10-28T08:47:37;101071.00;;;17.70
70533;BMP180;58088;51.186;17.130;2022-10-28T08:50:21;101072.80;;;17.90
70533;BMP180;58088;51.186;17.130;2022-10-28T08:53:05;101074.60;;;18.00
70533;BMP180;58088;51.186;17.130;2022-10-28T08:55:46;101078.00;;;18.10
70533;BMP180;58088;51.186;17.130;2022-10-28T08:58:24;101077.40;;;18.10
70533;BMP180;58088;51.186;17.130;2022-10-28T09:00:57;101066.40;;;18.20
70533;BMP180;58088;51.186;17.130;2022-10-28T09:03:45;101073.80;;;18.24
70533;BMP180;58088;51.186;17.130;2022-10-28T09:06:13;101075.60;;;18.40
70533;BMP180;58088;51.186;17.130;2022-10-28T09:08:44;101073.60;;;18.48
70533;BMP180;58088;51.186;17.130;2022-10-28T09:12:03;101074.20;;;18.48
70533;BMP180;58088;51.186;17.130;2022-10-28T09:16:02;101075.80;;;18.60
70533;BMP180;58088;51.186;17.130;2022-10-28T09:21:31;101084.80;;;18.90
70533;BMP180;58088;51.186;17.130;2022-10-28T09:24:17;101081.80;;;19.10
70533;BMP180;58088;51.186;17.130;2022-10-28T09:27:03;101075.60;;;19.10
70533;BMP180;58088;51.186;17.130;2022-10-28T09:35:19;101075.60;;;19.40
70533;BMP180;58088;51.186;17.130;2022-10-28T09:40:55;101069.60;;;19.50
70533;BMP180;58088;51.186;17.130;2022-10-28T09:43:33;101063.80;;;19.50
70533;BMP180;58088;51.186;17.130;2022-10-28T09:46:09;101064.80;;;19.56
70533;BMP180;58088;51.186;17.130;2022-10-28T09:49:02;101070.00;;;19.60
70533;BMP180;58088;51.186;17.130;2022-10-28T09:52:13;101079.60;;;19.60
70533;BMP180;58088;51.186;17.130;2022-10-28T09:54:50;101084.60;;;19.70
70533;BMP180;58088;51.186;17.130;2022-10-28T09:57:18;101083.20;;;19.80
70533;BMP180;58088;51.186;17.130;2022-10-28T09:59:45;101080.40;;;19.90
70533;BMP180;58088;51.186;17.130;2022-10-28T10:02:29;101069.40;;;20.00
70533;BMP180;58088;51.186;17.130;2022-10-28T10:04:57;101070.40;;;20.14
70533;BMP180;58088;51.186;17.130;2022-10-28T10:07:45;101059.00;;;20.20
70533;BMP180;58088;51.186;17.130;2022-10-28T10:12:55;101061.40;;;20.40
70533;BMP180;58088;51.186;17.130;2022-10-28T10:15:51;101060.40;;;20.52
70533;BMP180;58088;51.186;17.130;2022-10-28T10:18:27;101062.20;;;20.70
70533;BMP180;58088;51.186;17.130;2022-10-28T10:20:56;101060.40;;;20.84
70533;BMP180;58088;51.186;17.130;2022-10-28T10:23:33;101055.80;;;20.90
70533;BMP180;58088;51.186;17.130;2022-10-28T10:28:29;101062.20;;;21.10
70533;BMP180;58088;51.186;17.130;2022-10-28T10:30:59;101060.20;;;21.20
70533;BMP180;58088;51.186;17.130;2022-10-28T10:33:34;101058.80;;;21.30
70533;BMP180;58088;51.186;17.130;2022-10-28T10:38:31;101047.40;;;21.40
70533;BMP180;58088;51.186;17.130;2022-10-28T10:40:57;101046.60;;;21.44
70533;BMP180;58088;51.186;17.130;2022-10-28T10:46:13;101041.40;;;21.62
70533;BMP180;58088;51.186;17.130;2022-10-28T10:48:41;101038.60;;;21.80
70533;BMP180;58088;51.186;17.130;2022-10-28T10:51:17;101032.40;;;21.80
70533;BMP180;58088;51.186;17.130;2022-10-28T10:53:49;101034.60;;;21.90
70533;BMP180;58088;51.186;17.130;2022-10-28T10:56:26;101023.80;;;21.94
70533;BMP180;58088;51.186;17.130;2022-10-28T10:58:58;101027.00;;;22.10
70533;BMP180;58088;51.186;17.130;2022-10-28T11:01:34;101030.20;;;22.20
70533;BMP180;58088;51.186;17.130;2022-10-28T11:04:05;101030.80;;;22.20
70533;BMP180;58088;51.186;17.130;2022-10-28T11:06:38;101032.00;;;22.30
70533;BMP180;58088;51.186;17.130;2022-10-28T11:09:38;101032.40;;;22.40
70533;BMP180;58088;51.186;17.130;2022-10-28T11:12:34;101034.40;;;22.50
70533;BMP180;58088;51.186;17.130;2022-10-28T11:15:21;101034.20;;;22.60
70533;BMP180;58088;51.186;17.130;2022-10-28T11:18:17;101027.00;;;22.76
70533;BMP180;58088;51.186;17.130;2022-10-28T11:20:57;101021.20;;;22.90
70533;BMP180;58088;51.186;17.130;2022-10-28T11:23:38;101024.60;;;23.00
70533;BMP180;58088;51.186;17.130;2022-10-28T11:26:12;101021.60;;;23.10
70533;BMP180;58088;51.186;17.130;2022-10-28T11:29:01;101021.20;;;23.18
70533;BMP180;58088;51.186;17.130;2022-10-28T11:32:03;101017.60;;;23.20
70533;BMP180;58088;51.186;17.130;2022-10-28T11:37:14;100996.80;;;23.28
70533;BMP180;58088;51.186;17.130;2022-10-28T11:46:08;101001.60;;;23.56
70533;BMP180;58088;51.186;17.130;2022-10-28T11:49:01;101000.20;;;23.60
70533;BMP180;58088;51.186;17.130;2022-10-28T11:57:15;100996.20;;;23.80
70533;BMP180;58088;51.186;17.130;2022-10-28T12:05:46;100979.00;;;23.90
70533;BMP180;58088;51.186;17.130;2022-10-28T12:17:29;100977.40;;;24.00
70533;BMP180;58088;51.186;17.130;2022-10-28T12:20:30;100979.00;;;24.10
70533;BMP180;58088;51.186;17.130;2022-10-28T12:23:04;100975.80;;;24.20
70533;BMP180;58088;51.186;17.130;2022-10-28T12:25:35;100967.80;;;24.20
70533;BMP180;58088;51.186;17.130;2022-10-28T12:28:23;100967.60;;;24.20
70533;BMP180;58088;51.186;17.130;2022-10-28T12:30:52;100962.60;;;24.20
70533;BMP180;58088;51.186;17.130;2022-10-28T12:33:32;100966.20;;;24.30
70533;BMP180;58088;51.186;17.130;2022-10-28T12:36:33;100965.80;;;24.20
70533;BMP180;58088;51.186;17.130;2022-10-28T12:39:24;100960.60;;;24.30
70533;BMP180;58088;51.186;17.130;2022-10-28T12:42:03;100952.60;;;24.30
70533;BMP180;58088;51.186;17.130;2022-10-28T12:44:33;100942.60;;;24.30
70533;BMP180;58088;51.186;17.130;2022-10-28T12:52:53;100940.00;;;24.30
70533;BMP180;58088;51.186;17.130;2022-10-28T12:55:30;100941.00;;;24.30
70533;BMP180;58088;51.186;17.130;2022-10-28T12:58:24;100941.20;;;24.30
70533;BMP180;58088;51.186;17.130;2022-10-28T13:01:08;100935.60;;;24.30
70533;BMP180;58088;51.186;17.130;2022-10-28T13:03:35;100934.20;;;24.38
70533;BMP180;58088;51.186;17.130;2022-10-28T13:06:33;100928.00;;;24.40
70533;BMP180;58088;51.186;17.130;2022-10-28T13:09:30;100926.80;;;24.32
70533;BMP180;58088;51.186;17.130;2022-10-28T13:15:20;100923.80;;;24.30
70533;BMP180;58088;51.186;17.130;2022-10-28T13:26:48;100922.40;;;24.20
70533;BMP180;58088;51.186;17.130;2022-10-28T13:29:33;100920.20;;;24.20
70533;BMP180;58088;51.186;17.130;2022-10-28T13:32:01;100917.40;;;24.20
70533;BMP180;58088;51.186;17.130;2022-10-28T13:34:39;100910.20;;;24.20
70533;BMP180;58088;51.186;17.130;2022-10-28T13:37:18;100908.00;;;24.16
70533;BMP180;58088;51.186;17.130;2022-10-28T13:39:46;100905.00;;;24.10
70533;BMP180;58088;51.186;17.130;2022-10-28T13:52:36;100908.60;;;24.10
70533;BMP180;58088;51.186;17.130;2022-10-28T13:57:47;100903.40;;;24.00
70533;BMP180;58088;51.186;17.130;2022-10-28T14:03:05;100911.40;;;24.00
70533;BMP180;58088;51.186;17.130;2022-10-28T14:11:13;100917.60;;;24.00
70533;BMP180;58088;51.186;17.130;2022-10-28T14:14:01;100918.20;;;24.00
70533;BMP180;58088;51.186;17.130;2022-10-28T14:16:39;100920.20;;;23.96
70533;BMP180;58088;51.186;17.130;2022-10-28T14:24:39;100917.20;;;23.80
70533;BMP180;58088;51.186;17.130;2022-10-28T14:27:18;100915.60;;;23.80
70533;BMP180;58088;51.186;17.130;2022-10-28T14:29:55;100910.40;;;23.80
70533;BMP180;58088;51.186;17.130;2022-10-28T14:32:43;100904.80;;;23.74
70533;BMP180;58088;51.186;17.130;2022-10-28T14:40:41;100906.40;;;23.70
70533;BMP180;58088;51.186;17.130;2022-10-28T14:43:24;100905.40;;;23.60
70533;BMP180;58088;51.186;17.130;2022-10-28T14:46:10;100895.40;;;23.50
70533;BMP180;58088;51.186;17.130;2022-10-28T14:48:53;100900.20;;;23.36
70533;BMP180;58088;51.186;17.130;2022-10-28T14:51:35;100897.60;;;23.30
70533;BMP180;58088;51.186;17.130;2022-10-28T14:54:12;100897.20;;;23.20
70533;BMP180;58088;51.186;17.130;2022-10-28T14:56:40;100895.80;;;23.20
70533;BMP180;58088;51.186;17.130;2022-10-28T14:59:43;100893.60;;;23.10
70533;BMP180;58088;51.186;17.130;2022-10-28T15:02:17;100891.60;;;23.00
70533;BMP180;58088;51.186;17.130;2022-10-28T15:04:55;100893.20;;;22.90
70533;BMP180;58088;51.186;17.130;2022-10-28T15:07:22;100894.60;;;22.80
70533;BMP180;58088;51.186;17.130;2022-10-28T15:09:49;100895.40;;;22.70
70533;BMP180;58088;51.186;17.130;2022-10-28T15:12:20;100891.80;;;22.62
70533;BMP180;58088;51.186;17.130;2022-10-28T15:14:53;100888.40;;;22.50
70533;BMP180;58088;51.186;17.130;2022-10-28T15:17:25;100882.60;;;22.50
70533;BMP180;58088;51.186;17.130;2022-10-28T15:19:58;100886.40;;;22.40
70533;BMP180;58088;51.186;17.130;2022-10-28T15:22:31;100883.40;;;22.30
70533;BMP180;58088;51.186;17.130;2022-10-28T15:25:08;100884.80;;;22.30
70533;BMP180;58088;51.186;17.130;2022-10-28T15:27:38;100884.00;;;22.20
70533;BMP180;58088;51.186;17.130;2022-10-28T15:30:20;100885.80;;;22.10
70533;BMP180;58088;51.186;17.130;2022-10-28T15:32:53;100884.80;;;22.10
70533;BMP180;58088;51.186;17.130;2022-10-28T15:37:53;100895.60;;;21.80
70533;BMP180;58088;51.186;17.130;2022-10-28T15:40:33;100898.20;;;21.70
70533;BMP180;58088;51.186;17.130;2022-10-28T15:43:19;100892.80;;;21.60
70533;BMP180;58088;51.186;17.130;2022-10-28T15:45:52;100896.00;;;21.50
70533;BMP180;58088;51.186;17.130;2022-10-28T15:48:25;100896.80;;;21.40
70533;BMP180;58088;51.186;17.130;2022-10-28T15:51:16;100891.00;;;21.20
70533;BMP180;58088;51.186;17.130;2022-10-28T15:53:53;100888.60;;;21.10
70533;BMP180;58088;51.186;17.130;2022-10-28T15:56:25;100886.40;;;21.00
70533;BMP180;58088;51.186;17.130;2022-10-28T16:01:36;100888.40;;;20.70
70533;BMP180;58088;51.186;17.130;2022-10-28T16:06:53;100894.60;;;20.50
70533;BMP180;58088;51.186;17.130;2022-10-28T16:09:31;100894.40;;;20.34
70533;BMP180;58088;51.186;17.130;2022-10-28T16:12:03;100891.60;;;20.20
70533;BMP180;58088;51.186;17.130;2022-10-28T16:14:40;100883.60;;;20.10
70533;BMP180;58088;51.186;17.130;2022-10-28T16:17:21;100874.40;;;20.00
70533;BMP180;58088;51.186;17.130;2022-10-28T16:19:52;100874.60;;;19.80
70533;BMP180;58088;51.186;17.130;2022-10-28T16:22:23;100876.60;;;19.74
70533;BMP180;58088;51.186;17.130;2022-10-28T16:24:52;100880.00;;;19.70
70533;BMP180;58088;51.186;17.130;2022-10-28T16:27:29;100882.40;;;19.66
70533;BMP180;58088;51.186;17.130;2022-10-28T16:29:56;100875.60;;;19.62
70533;BMP180;58088;51.186;17.130;2022-10-28T16:32:33;100878.40;;;19.60
70533;BMP180;58088;51.186;17.130;2022-10-28T16:35:03;100877.60;;;19.60
70533;BMP180;58088;51.186;17.130;2022-10-28T16:37:33;100880.80;;;19.60
70533;BMP180;58088;51.186;17.130;2022-10-28T16:39:59;100885.80;;;19.50
70533;BMP180;58088;51.186;17.130;2022-10-28T16:42:26;100892.20;;;19.50
70533;BMP180;58088;51.186;17.130;2022-10-28T16:44:52;100891.40;;;19.50